createdAt,value
2023-04-24T00:00:08.347Z,61.30
2023-04-24T00:02:34.614Z,61.20
2023-04-24T00:05:00.872Z,61.08
2023-04-24T00:07:26.989Z,61.18
2023-04-24T00:09:53.114Z,61.16
2023-04-24T00:12:19.225Z,61.25
2023-04-24T00:14:45.317Z,61.17
2023-04-24T00:17:11.432Z,61.12
2023-04-24T00:19:37.539Z,61.12
2023-04-24T00:22:03.680Z,61.30
2023-04-24T00:24:29.796Z,61.25
2023-04-24T00:26:55.888Z,61.06
2023-04-24T00:29:21.996Z,61.22
2023-04-24T00:31:48.112Z,61.25
2023-04-24T00:34:14.227Z,61.27
2023-04-24T00:36:40.336Z,61.17
2023-04-24T00:39:06.481Z,61.20
2023-04-24T00:41:32.579Z,61.16
2023-04-24T00:43:58.708Z,61.07
2023-04-24T00:46:24.839Z,61.32
2023-04-24T00:48:50.961Z,61.24
2023-04-24T00:51:17.070Z,61.10
2023-04-24T00:53:43.234Z,61.18
2023-04-24T00:56:09.331Z,61.26
2023-04-24T00:58:35.429Z,61.10
2023-04-24T01:01:01.562Z,61.26
2023-04-24T01:03:27.812Z,61.23
2023-04-24T01:05:54.019Z,61.29
2023-04-24T01:08:20.139Z,61.21
2023-04-24T01:10:46.252Z,61.21
2023-04-24T01:13:12.444Z,61.31
2023-04-24T01:15:39.085Z,61.32
2023-04-24T01:18:05.185Z,61.13
2023-04-24T01:20:31.322Z,61.34
2023-04-24T01:22:57.435Z,61.22
2023-04-24T01:25:23.536Z,61.20
2023-04-24T01:27:49.643Z,61.32
2023-04-24T01:30:15.755Z,61.22
2023-04-24T01:32:41.876Z,61.27
2023-04-24T01:35:07.974Z,61.10
2023-04-24T01:37:34.114Z,61.29
2023-04-24T01:40:00.226Z,61.19
2023-04-24T01:42:26.319Z,61.31
2023-04-24T01:44:52.416Z,61.21
2023-04-24T01:47:18.521Z,61.23
2023-04-24T01:49:45.001Z,61.10
2023-04-24T01:52:11.386Z,61.19
2023-04-24T01:54:37.484Z,61.22
2023-04-24T01:57:03.585Z,61.16
2023-04-24T01:59:29.784Z,61.38
2023-04-24T02:01:55.916Z,61.27
2023-04-24T02:04:22.059Z,61.12
2023-04-24T02:06:48.247Z,61.16
2023-04-24T02:09:14.365Z,61.17
2023-04-24T02:11:40.465Z,61.19
2023-04-24T02:14:06.575Z,61.08
2023-04-24T02:16:32.671Z,61.10
2023-04-24T02:18:58.790Z,61.09
2023-04-24T02:21:25.302Z,61.06
2023-04-24T02:23:51.408Z,60.97
2023-04-24T02:26:17.514Z,61.22
2023-04-24T02:28:43.633Z,61.08
2023-04-24T02:31:09.722Z,60.97
2023-04-24T02:33:35.814Z,61.04
2023-04-24T02:36:01.926Z,61.05
2023-04-24T02:38:28.048Z,61.05
2023-04-24T02:40:54.145Z,60.85
2023-04-24T02:43:20.273Z,61.11
2023-04-24T02:45:46.436Z,60.97
2023-04-24T02:48:12.582Z,60.87
2023-04-24T02:50:38.686Z,61.05
2023-04-24T02:53:04.809Z,61.26
2023-04-24T02:55:30.901Z,61.03
2023-04-24T02:57:57.024Z,60.99
2023-04-24T03:00:23.117Z,60.97
2023-04-24T03:02:49.493Z,60.99
2023-04-24T03:05:15.696Z,61.06
2023-04-24T03:07:41.785Z,60.89
2023-04-24T03:10:07.902Z,60.82
2023-04-24T03:12:34.114Z,60.86
2023-04-24T03:15:00.224Z,61.02
2023-04-24T03:17:26.330Z,60.96
2023-04-24T03:19:52.450Z,60.90
2023-04-24T03:22:18.538Z,60.90
2023-04-24T03:24:44.644Z,60.92
2023-04-24T03:27:10.763Z,60.92
2023-04-24T03:29:36.880Z,60.96
2023-04-24T03:32:02.994Z,60.92
2023-04-24T03:34:29.168Z,60.90
2023-04-24T03:36:55.257Z,60.82
2023-04-24T03:39:21.369Z,60.85
2023-04-24T03:41:47.521Z,60.78
2023-04-24T03:44:13.626Z,60.78
2023-04-24T03:46:39.794Z,60.80
2023-04-24T03:49:05.928Z,60.71
2023-04-24T03:51:32.033Z,60.64
2023-04-24T03:53:58.159Z,60.76
2023-04-24T03:56:24.331Z,60.66
2023-04-24T03:58:50.439Z,60.83
2023-04-24T04:01:16.576Z,60.66
2023-04-24T04:03:42.899Z,60.75
2023-04-24T04:06:09.046Z,60.68
2023-04-24T04:08:35.126Z,60.63
2023-04-24T04:11:02.841Z,60.80
2023-04-24T04:13:30.092Z,60.75
2023-04-24T04:15:56.197Z,60.79
2023-04-24T04:18:22.339Z,60.62
2023-04-24T04:20:48.435Z,60.79
2023-04-24T04:23:14.533Z,60.77
2023-04-24T04:25:41.160Z,60.71
2023-04-24T04:28:07.264Z,60.78
2023-04-24T04:30:33.354Z,60.77
2023-04-24T04:32:59.476Z,60.78
2023-04-24T04:35:25.612Z,60.55
2023-04-24T04:37:51.720Z,60.68
2023-04-24T04:40:17.837Z,60.79
2023-04-24T04:42:43.922Z,60.56
2023-04-24T04:45:10.013Z,60.72
2023-04-24T04:47:36.165Z,60.64
2023-04-24T04:50:02.307Z,60.50
2023-04-24T04:52:28.419Z,60.53
2023-04-24T04:54:54.527Z,60.66
2023-04-24T04:57:20.631Z,60.75
2023-04-24T04:59:46.732Z,60.54
2023-04-24T05:02:12.950Z,60.63
2023-04-24T05:04:39.389Z,60.65
2023-04-24T05:07:05.607Z,60.51
2023-04-24T05:09:31.740Z,60.54
2023-04-24T05:11:57.840Z,60.77
2023-04-24T05:14:23.931Z,60.71
2023-04-24T05:16:50.550Z,60.74
2023-04-24T05:19:16.766Z,60.66
2023-04-24T05:21:42.882Z,60.56
2023-04-24T05:24:09.034Z,60.49
2023-04-24T05:26:35.199Z,60.72
2023-04-24T05:29:01.322Z,60.69
2023-04-24T05:31:27.471Z,60.65
2023-04-24T05:33:53.649Z,60.55
2023-04-24T05:36:19.782Z,60.60
2023-04-24T05:38:45.888Z,60.47
2023-04-24T05:41:11.990Z,60.71
2023-04-24T05:43:38.091Z,60.56
2023-04-24T05:46:04.216Z,60.71
2023-04-24T05:48:30.325Z,60.48
2023-04-24T05:50:56.415Z,60.47
2023-04-24T05:53:22.534Z,60.46
2023-04-24T05:55:48.644Z,60.57
2023-04-24T05:58:14.744Z,60.41
2023-04-24T06:00:40.867Z,60.26
2023-04-24T06:03:07.180Z,60.36
2023-04-24T06:05:33.654Z,60.51
2023-04-24T06:07:59.793Z,60.44
2023-04-24T06:10:25.889Z,60.54
2023-04-24T06:12:52.006Z,60.38
2023-04-24T06:15:18.137Z,60.43
2023-04-24T06:17:44.337Z,60.44
2023-04-24T06:20:10.452Z,60.52
2023-04-24T06:22:37.074Z,60.58
2023-04-24T06:25:03.170Z,60.56
2023-04-24T06:27:29.277Z,60.44
2023-04-24T06:29:55.493Z,60.36
2023-04-24T06:32:21.686Z,60.71
2023-04-24T06:34:47.838Z,60.38
2023-04-24T06:37:13.989Z,60.45
2023-04-24T06:39:40.080Z,60.36
2023-04-24T06:42:06.175Z,60.54
2023-04-24T06:44:32.275Z,60.59
2023-04-24T06:46:58.369Z,60.48
2023-04-24T06:49:24.499Z,60.52
2023-04-24T06:51:50.650Z,60.54
2023-04-24T06:54:16.760Z,60.54
2023-04-24T06:56:42.858Z,60.43
2023-04-24T06:59:08.971Z,60.50
2023-04-24T07:01:35.113Z,60.44
2023-04-24T07:04:01.437Z,60.45
2023-04-24T07:06:28.208Z,60.44
2023-04-24T07:08:54.322Z,60.43
2023-04-24T07:11:20.458Z,60.25
2023-04-24T07:13:46.567Z,60.44
2023-04-24T07:16:12.668Z,60.50
2023-04-24T07:18:41.124Z,60.41
2023-04-24T07:21:07.249Z,60.46
2023-04-24T07:23:33.354Z,60.39
2023-04-24T07:25:59.460Z,60.51
2023-04-24T07:28:25.591Z,60.47
2023-04-24T07:30:51.689Z,60.27
2023-04-24T07:33:17.826Z,60.47
2023-04-24T07:35:43.984Z,60.48
2023-04-24T07:38:10.098Z,60.30
2023-04-24T07:40:36.202Z,60.40
2023-04-24T07:43:02.352Z,60.30
2023-04-24T07:45:28.456Z,60.38
2023-04-24T07:47:54.581Z,60.25
2023-04-24T07:50:20.702Z,60.42
2023-04-24T07:52:46.786Z,60.32
2023-04-24T07:55:12.894Z,60.27
2023-04-24T07:57:39.021Z,60.44
2023-04-24T08:00:05.111Z,60.44
2023-04-24T08:02:31.345Z,60.42
2023-04-24T08:04:59.420Z,60.36
2023-04-24T08:07:26.374Z,60.34
2023-04-24T08:09:52.519Z,60.36
2023-04-24T08:12:18.658Z,60.26
2023-04-24T08:14:44.967Z,60.23
2023-04-24T08:17:11.163Z,60.37
2023-04-24T08:19:37.338Z,60.28
2023-04-24T08:22:03.425Z,60.25
2023-04-24T08:24:29.528Z,60.23
2023-04-24T08:26:56.157Z,60.26
2023-04-24T08:29:22.240Z,60.24
2023-04-24T08:31:48.407Z,60.16
2023-04-24T08:34:14.548Z,60.03
2023-04-24T08:36:47.002Z,60.10
2023-04-24T08:39:13.737Z,60.15
2023-04-24T08:41:39.906Z,60.07
2023-04-24T08:44:06.026Z,60.06
2023-04-24T08:46:32.301Z,60.20
2023-04-24T08:48:58.505Z,60.08
2023-04-24T08:51:24.610Z,60.01
2023-04-24T08:53:50.720Z,59.95
2023-04-24T08:56:16.870Z,60.08
2023-04-24T08:58:42.987Z,59.86
2023-04-24T09:01:09.138Z,59.93
2023-04-24T09:03:35.426Z,59.88
2023-04-24T09:06:01.829Z,59.94
2023-04-24T09:08:27.971Z,59.68
2023-04-24T09:10:54.105Z,59.78
2023-04-24T09:13:20.190Z,59.75
2023-04-24T09:15:46.293Z,59.83
2023-04-24T09:18:12.411Z,59.88
2023-04-24T09:20:38.523Z,59.91
2023-04-24T09:23:04.623Z,59.72
2023-04-24T09:25:30.746Z,59.75
2023-04-24T09:27:56.852Z,59.83
2023-04-24T09:30:22.930Z,59.75
2023-04-24T09:32:49.583Z,59.77
2023-04-24T09:35:15.732Z,59.65
2023-04-24T09:37:41.834Z,59.64
2023-04-24T09:40:07.960Z,59.77
2023-04-24T09:42:34.072Z,59.79
2023-04-24T09:45:12.118Z,59.71
2023-04-24T09:47:41.153Z,59.78
2023-04-24T09:50:07.330Z,59.76
2023-04-24T09:52:33.441Z,59.67
2023-04-24T09:54:59.667Z,59.73
2023-04-24T09:57:25.794Z,59.70
2023-04-24T09:59:51.890Z,59.63
2023-04-24T10:02:18.052Z,59.52
2023-04-24T10:04:44.218Z,59.55
2023-04-24T10:07:10.319Z,59.57
2023-04-24T10:09:36.730Z,59.51
2023-04-24T10:12:02.839Z,59.51
2023-04-24T10:14:29.004Z,59.73
2023-04-24T10:16:55.155Z,59.51
2023-04-24T10:19:21.368Z,59.65
2023-04-24T10:21:47.650Z,59.39
2023-04-24T10:24:13.808Z,59.41
2023-04-24T10:26:39.895Z,59.56
2023-04-24T10:29:05.982Z,59.35
2023-04-24T10:31:32.152Z,59.39
2023-04-24T10:33:58.330Z,59.46
2023-04-24T10:36:24.442Z,59.45
2023-04-24T10:38:50.600Z,59.39
2023-04-24T10:41:16.706Z,59.26
2023-04-24T10:43:42.816Z,59.09
2023-04-24T10:46:09.366Z,59.12
2023-04-24T10:48:35.488Z,59.08
2023-04-24T10:51:01.578Z,59.17
2023-04-24T10:53:27.719Z,58.98
2023-04-24T10:55:53.846Z,59.13
2023-04-24T10:58:19.940Z,59.03
2023-04-24T11:00:46.108Z,59.04
2023-04-24T11:03:12.380Z,59.02
2023-04-24T11:05:38.613Z,58.98
2023-04-24T11:08:07.265Z,59.10
2023-04-24T11:10:33.496Z,59.12
2023-04-24T11:12:59.595Z,58.91
2023-04-24T11:15:25.720Z,59.04
2023-04-24T11:17:51.900Z,58.90
2023-04-24T11:20:27.634Z,58.99
2023-04-24T11:22:54.622Z,59.07
2023-04-24T11:25:20.716Z,58.98
2023-04-24T11:27:46.823Z,59.14
2023-04-24T11:30:12.987Z,58.94
2023-04-24T11:32:39.185Z,58.92
2023-04-24T11:35:05.305Z,58.89
2023-04-24T11:37:31.476Z,58.88
2023-04-24T11:39:57.801Z,58.99
2023-04-24T11:42:24.130Z,58.94
2023-04-24T11:44:50.428Z,58.89
2023-04-24T11:47:16.515Z,58.93
2023-04-24T11:49:42.632Z,58.94
2023-04-24T11:52:08.781Z,58.95
2023-04-24T11:54:34.875Z,58.76
2023-04-24T11:57:00.976Z,58.82
2023-04-24T11:59:27.224Z,58.80
2023-04-24T12:01:53.318Z,58.79
2023-04-24T12:04:19.520Z,58.97
2023-04-24T12:06:45.886Z,58.87
2023-04-24T12:09:18.217Z,58.84
2023-04-24T12:11:44.824Z,58.81
2023-04-24T12:14:11.010Z,58.90
2023-04-24T12:16:37.176Z,58.91
2023-04-24T12:19:03.337Z,58.96
2023-04-24T12:21:29.452Z,58.90
2023-04-24T12:23:55.546Z,58.92
2023-04-24T12:26:21.652Z,58.92
2023-04-24T12:28:47.770Z,58.93
2023-04-24T12:31:13.909Z,58.90
2023-04-24T12:33:40.178Z,59.04
2023-04-24T12:36:06.391Z,58.85
2023-04-24T12:38:32.507Z,58.96
2023-04-24T12:40:58.600Z,58.94
2023-04-24T12:43:24.801Z,58.73
2023-04-24T12:45:50.922Z,58.80
2023-04-24T12:48:17.084Z,58.88
2023-04-24T12:50:45.699Z,58.73
2023-04-24T12:53:12.776Z,58.75
2023-04-24T12:55:38.928Z,58.74
2023-04-24T12:58:05.059Z,58.75
2023-04-24T13:00:31.223Z,58.75
2023-04-24T13:02:57.422Z,59.02
2023-04-24T13:05:25.235Z,58.75
2023-04-24T13:07:51.661Z,58.72
2023-04-24T13:10:17.777Z,58.96
2023-04-24T13:12:43.905Z,58.79
2023-04-24T13:15:10.199Z,58.95
2023-04-24T13:17:36.360Z,58.75
2023-04-24T13:20:02.521Z,58.79
2023-04-24T13:22:28.618Z,58.65
2023-04-24T13:24:54.750Z,58.94
2023-04-24T13:27:20.881Z,58.69
2023-04-24T13:29:46.977Z,58.67
2023-04-24T13:32:13.106Z,58.65
2023-04-24T13:34:39.249Z,58.50
2023-04-24T13:37:05.414Z,58.59
2023-04-24T13:39:31.693Z,58.58
2023-04-24T13:41:57.881Z,58.55
2023-04-24T13:44:23.980Z,58.51
2023-04-24T13:46:50.097Z,58.69
2023-04-24T13:49:16.225Z,58.68
2023-04-24T13:51:42.330Z,58.40
2023-04-24T13:54:08.431Z,58.69
2023-04-24T13:56:34.537Z,58.40
2023-04-24T13:59:00.623Z,58.39
2023-04-24T14:01:26.880Z,58.54
2023-04-24T14:03:53.172Z,58.27
2023-04-24T14:06:19.455Z,58.48
2023-04-24T14:08:45.563Z,58.44
2023-04-24T14:11:11.678Z,58.29
2023-04-24T14:13:37.793Z,58.36
2023-04-24T14:16:03.892Z,58.39
2023-04-24T14:18:30.073Z,58.39
2023-04-24T14:20:56.160Z,58.49
2023-04-24T14:23:22.268Z,58.35
2023-04-24T14:25:48.392Z,58.31
2023-04-24T14:28:14.498Z,58.34
2023-04-24T14:30:40.599Z,58.10
2023-04-24T14:33:06.773Z,58.37
2023-04-24T14:35:32.895Z,58.26
2023-04-24T14:37:59.025Z,58.25
2023-04-24T14:40:48.416Z,58.22
2023-04-24T14:43:11.214Z,58.22
2023-04-24T14:45:37.832Z,58.04
2023-04-24T14:48:03.985Z,58.11
2023-04-24T14:50:30.167Z,58.10
2023-04-24T14:52:56.403Z,58.03
2023-04-24T14:55:22.516Z,58.21
2023-04-24T14:57:48.659Z,58.21
2023-04-24T15:00:14.777Z,58.18
2023-04-24T15:02:41.006Z,58.19
2023-04-24T15:05:07.421Z,58.00
2023-04-24T15:07:33.584Z,58.05
2023-04-24T15:09:59.751Z,58.13
2023-04-24T15:12:27.190Z,58.02
2023-04-24T15:14:53.295Z,58.06
2023-04-24T15:17:19.401Z,58.27
2023-04-24T15:19:45.524Z,58.19
2023-04-24T15:22:12.252Z,58.02
2023-04-24T15:24:38.358Z,58.20
2023-04-24T15:27:04.444Z,58.37
2023-04-24T15:29:30.555Z,58.01
2023-04-24T15:31:56.698Z,58.05
2023-04-24T15:34:22.805Z,58.08
2023-04-24T15:36:48.928Z,58.16
2023-04-24T15:39:15.041Z,58.00
2023-04-24T15:41:41.135Z,58.10
2023-04-24T15:44:07.269Z,57.87
2023-04-24T15:46:33.437Z,58.08
2023-04-24T15:48:59.585Z,57.96
2023-04-24T15:51:25.921Z,58.16
2023-04-24T15:53:52.028Z,57.96
2023-04-24T15:56:18.130Z,57.97
2023-04-24T15:58:44.250Z,58.02
2023-04-24T16:01:10.384Z,57.99
2023-04-24T16:03:36.659Z,57.79
2023-04-24T16:06:02.891Z,57.86
2023-04-24T16:08:28.989Z,57.78
2023-04-24T16:10:55.073Z,57.77
2023-04-24T16:13:21.199Z,57.75
2023-04-24T16:15:47.321Z,57.98
2023-04-24T16:18:13.487Z,58.02
2023-04-24T16:20:39.743Z,57.85
2023-04-24T16:23:05.860Z,57.86
2023-04-24T16:25:31.965Z,57.86
2023-04-24T16:27:58.078Z,57.94
2023-04-24T16:30:24.185Z,57.81
2023-04-24T16:32:50.373Z,57.88
2023-04-24T16:35:16.608Z,57.75
2023-04-24T16:37:42.693Z,57.74
2023-04-24T16:40:08.778Z,57.75
2023-04-24T16:42:34.892Z,57.76
2023-04-24T16:45:01.004Z,57.75
2023-04-24T16:47:27.131Z,57.78
2023-04-24T16:49:53.275Z,57.71
2023-04-24T16:52:19.354Z,57.75
2023-04-24T16:54:45.453Z,57.74
2023-04-24T16:57:12.089Z,57.75
2023-04-24T16:59:44.394Z,57.80
2023-04-24T17:02:10.528Z,57.71
2023-04-24T17:04:36.881Z,57.70
2023-04-24T17:07:03.069Z,57.74
2023-04-24T17:09:29.175Z,57.58
2023-04-24T17:11:55.305Z,57.66
2023-04-24T17:14:21.390Z,57.81
2023-04-24T17:16:47.544Z,57.85
2023-04-24T17:19:13.745Z,57.78
2023-04-24T17:21:39.945Z,57.80
2023-04-24T17:24:06.057Z,57.98
2023-04-24T17:26:32.243Z,57.81
2023-04-24T17:28:58.359Z,57.92
2023-04-24T17:31:24.506Z,57.74
2023-04-24T17:33:50.635Z,57.77
2023-04-24T17:36:16.718Z,57.90
2023-04-24T17:38:42.806Z,57.87
2023-04-24T17:41:08.919Z,57.88
2023-04-24T17:43:35.095Z,57.70
2023-04-24T17:46:01.244Z,57.88
2023-04-24T17:48:27.466Z,57.81
2023-04-24T17:50:53.624Z,57.74
2023-04-24T17:53:19.749Z,57.66
2023-04-24T17:55:45.916Z,57.65
2023-04-24T17:58:12.020Z,57.90
2023-04-24T18:00:38.128Z,57.83
2023-04-24T18:03:04.407Z,57.73
2023-04-24T18:05:30.569Z,57.75
2023-04-24T18:07:56.674Z,57.73
2023-04-24T18:10:23.016Z,57.68
2023-04-24T18:12:49.161Z,57.85
2023-04-24T18:15:15.312Z,57.74
2023-04-24T18:17:41.493Z,57.72
2023-04-24T18:20:07.632Z,57.63
2023-04-24T18:22:33.739Z,57.70
2023-04-24T18:24:59.843Z,57.71
2023-04-24T18:27:25.947Z,57.54
2023-04-24T18:29:52.038Z,57.64
2023-04-24T18:32:18.686Z,57.68
2023-04-24T18:34:44.811Z,57.62
2023-04-24T18:37:10.905Z,57.90
2023-04-24T18:39:37.032Z,57.88
2023-04-24T18:42:03.134Z,57.71
2023-04-24T18:44:29.228Z,57.65
2023-04-24T18:46:55.387Z,57.82
2023-04-24T18:49:21.527Z,57.62
2023-04-24T18:51:53.645Z,57.83
2023-04-24T18:54:20.779Z,58.05
2023-04-24T18:56:46.869Z,57.99
2023-04-24T18:59:12.958Z,57.80
2023-04-24T19:01:39.710Z,57.95
2023-04-24T19:04:05.866Z,57.80
2023-04-24T19:06:31.984Z,57.86
2023-04-24T19:08:58.093Z,57.82
2023-04-24T19:11:24.187Z,57.98
2023-04-24T19:13:50.283Z,58.00
2023-04-24T19:16:16.447Z,58.08
2023-04-24T19:18:42.554Z,57.94
2023-04-24T19:21:08.646Z,58.16
2023-04-24T19:23:34.756Z,58.00
2023-04-24T19:26:00.851Z,58.01
2023-04-24T19:28:26.938Z,58.04
2023-04-24T19:30:53.061Z,57.88
2023-04-24T19:33:19.161Z,58.17
2023-04-24T19:35:45.260Z,57.96
2023-04-24T19:38:11.365Z,58.04
2023-04-24T19:40:37.459Z,57.85
2023-04-24T19:43:03.564Z,58.07
2023-04-24T19:45:29.687Z,58.17
2023-04-24T19:47:55.855Z,58.08
2023-04-24T19:50:21.993Z,58.30
2023-04-24T19:52:48.120Z,58.16
2023-04-24T19:55:14.214Z,58.17
2023-04-24T19:57:40.308Z,58.18
2023-04-24T20:00:06.469Z,58.17
2023-04-24T20:02:32.665Z,58.00
2023-04-24T20:04:58.897Z,58.15
2023-04-24T20:07:25.097Z,58.30
2023-04-24T20:09:51.222Z,58.16
2023-04-24T20:12:17.341Z,58.32
2023-04-24T20:14:43.474Z,58.18
2023-04-24T20:17:09.578Z,58.09
2023-04-24T20:19:35.676Z,58.30
2023-04-24T20:22:01.859Z,58.29
2023-04-24T20:24:27.955Z,58.12
2023-04-24T20:26:54.045Z,58.35
2023-04-24T20:29:20.154Z,58.33
2023-04-24T20:31:46.296Z,58.16
2023-04-24T20:34:12.410Z,58.19
2023-04-24T20:36:38.538Z,58.26
2023-04-24T20:39:04.639Z,58.18
2023-04-24T20:41:30.756Z,58.37
2023-04-24T20:43:56.868Z,58.22
2023-04-24T20:46:23.003Z,58.29
2023-04-24T20:48:49.372Z,58.34
2023-04-24T20:51:15.705Z,58.29
2023-04-24T20:53:41.790Z,58.51
2023-04-24T20:56:07.902Z,58.34
2023-04-24T20:58:34.118Z,58.38
2023-04-24T21:01:00.490Z,58.39
2023-04-24T21:03:26.748Z,58.52
2023-04-24T21:05:53.067Z,58.36
2023-04-24T21:08:19.180Z,58.45
2023-04-24T21:10:45.277Z,58.61
2023-04-24T21:13:11.392Z,58.27
2023-04-24T21:15:37.496Z,58.36
2023-04-24T21:18:03.696Z,58.35
2023-04-24T21:20:29.826Z,58.33
2023-04-24T21:22:55.928Z,58.37
2023-04-24T21:25:22.024Z,58.67
2023-04-24T21:27:48.177Z,58.53
2023-04-24T21:30:14.281Z,58.51
2023-04-24T21:32:40.578Z,58.27
2023-04-24T21:35:06.874Z,58.32
2023-04-24T21:37:32.960Z,58.39
2023-04-24T21:39:59.053Z,58.44
2023-04-24T21:42:25.257Z,58.71
2023-04-24T21:44:51.359Z,58.51
2023-04-24T21:47:17.467Z,58.64
2023-04-24T21:49:43.564Z,58.42
2023-04-24T21:52:09.652Z,58.52
2023-04-24T21:54:35.757Z,58.43
2023-04-24T21:57:01.878Z,58.63
2023-04-24T21:59:27.966Z,58.50
2023-04-24T22:01:54.070Z,58.33
2023-04-24T22:04:20.448Z,58.40
2023-04-24T22:06:46.935Z,58.48
2023-04-24T22:09:13.056Z,58.54
2023-04-24T22:11:39.204Z,58.44
2023-04-24T22:14:05.319Z,58.68
2023-04-24T22:16:31.508Z,58.54
2023-04-24T22:18:57.658Z,58.40
2023-04-24T22:21:23.773Z,58.54
2023-04-24T22:23:50.187Z,58.58
2023-04-24T22:26:16.578Z,58.76
2023-04-24T22:28:42.690Z,58.60
2023-04-24T22:31:08.807Z,58.73
2023-04-24T22:33:34.930Z,58.87
2023-04-24T22:36:01.022Z,58.72
2023-04-24T22:38:27.115Z,58.81
2023-04-24T22:40:53.225Z,58.81
2023-04-24T22:43:19.336Z,58.68
2023-04-24T22:45:45.470Z,58.72
2023-04-24T22:48:11.587Z,59.02
2023-04-24T22:50:37.683Z,58.69
2023-04-24T22:53:03.824Z,58.62
2023-04-24T22:55:29.959Z,58.86
2023-04-24T22:57:56.069Z,58.88
2023-04-24T23:00:22.167Z,58.72
2023-04-24T23:02:48.425Z,58.68
2023-04-24T23:05:14.583Z,58.69
2023-04-24T23:07:40.676Z,58.75
2023-04-24T23:10:06.795Z,59.00
2023-04-24T23:12:32.877Z,59.03
2023-04-24T23:14:58.980Z,58.71
2023-04-24T23:17:25.108Z,58.87
2023-04-24T23:19:51.254Z,58.80
2023-04-24T23:22:17.365Z,58.69
2023-04-24T23:24:43.496Z,58.89
2023-04-24T23:27:09.582Z,58.97
2023-04-24T23:29:35.673Z,58.97
2023-04-24T23:32:01.928Z,58.70
2023-04-24T23:34:28.166Z,58.71
2023-04-24T23:36:54.279Z,58.89
2023-04-24T23:39:20.424Z,58.90
2023-04-24T23:41:46.540Z,58.70
2023-04-24T23:44:12.652Z,59.02
2023-04-24T23:46:38.782Z,58.73
2023-04-24T23:49:04.870Z,58.69
2023-04-24T23:51:31.034Z,58.67
2023-04-24T23:53:57.164Z,58.86
2023-04-24T23:56:23.265Z,58.85
2023-04-24T23:58:49.358Z,58.68
